sensor_id;sensor_type;location;lat;lon;timestamp;temperature;humidity
22112;DHT22;11222;50.872;4.312;2023-01-09T00:00:43;7.30;99.90
22112;DHT22;11222;50.872;4.312;2023-01-09T00:03:09;7.30;99.90
22112;DHT22;11222;50.872;4.312;2023-01-09T00:05:35;7.30;99.90
22112;DHT22;11222;50.872;4.312;2023-01-09T00:08:01;7.30;99.90
22112;DHT22;11222;50.872;4.312;2023-01-09T00:10:27;7.30;99.90
22112;DHT22;11222;50.872;4.312;2023-01-09T00:12:52;7.20;99.90
22112;DHT22;11222;50.872;4.312;2023-01-09T00:15:18;7.20;99.90
22112;DHT22;11222;50.872;4.312;2023-01-09T00:17:44;7.10;99.90
22112;DHT22;11222;50.872;4.312;2023-01-09T00:20:13;7.10;99.90
22112;DHT22;11222;50.872;4.312;2023-01-09T00:22:39;7.10;99.90
22112;DHT22;11222;50.872;4.312;2023-01-09T00:25:05;7.10;99.90
22112;DHT22;11222;50.872;4.312;2023-01-09T00:27:32;7.10;99.90
22112;DHT22;11222;50.872;4.312;2023-01-09T00:29:57;7.10;99.90
22112;DHT22;11222;50.872;4.312;2023-01-09T00:32:23;7.10;99.90
22112;DHT22;11222;50.872;4.312;2023-01-09T00:34:49;7.10;99.90
22112;DHT22;11222;50.872;4.312;2023-01-09T00:37:15;7.10;99.90
22112;DHT22;11222;50.872;4.312;2023-01-09T00:39:41;7.00;99.90
22112;DHT22;11222;50.872;4.312;2023-01-09T00:42:10;7.00;99.90
22112;DHT22;11222;50.872;4.312;2023-01-09T00:44:40;7.00;99.90
22112;DHT22;11222;50.872;4.312;2023-01-09T00:47:14;7.00;99.90
22112;DHT22;11222;50.872;4.312;2023-01-09T00:49:42;7.00;99.90
22112;DHT22;11222;50.872;4.312;2023-01-09T00:52:10;7.00;99.90
22112;DHT22;11222;50.872;4.312;2023-01-09T00:54:37;7.00;99.90
22112;DHT22;11222;50.872;4.312;2023-01-09T00:57:03;7.00;99.90
22112;DHT22;11222;50.872;4.312;2023-01-09T00:59:29;7.00;99.90
22112;DHT22;11222;50.872;4.312;2023-01-09T01:01:55;7.00;99.90
22112;DHT22;11222;50.872;4.312;2023-01-09T01:04:20;6.90;99.90
22112;DHT22;11222;50.872;4.312;2023-01-09T01:07:04;6.90;99.90
22112;DHT22;11222;50.872;4.312;2023-01-09T01:09:49;6.90;99.90
22112;DHT22;11222;50.872;4.312;2023-01-09T01:12:15;6.90;99.90
22112;DHT22;11222;50.872;4.312;2023-01-09T01:14:40;6.80;99.90
22112;DHT22;11222;50.872;4.312;2023-01-09T01:17:07;6.80;99.90
22112;DHT22;11222;50.872;4.312;2023-01-09T01:19:34;6.80;99.90
22112;DHT22;11222;50.872;4.312;2023-01-09T01:22:01;6.80;99.90
22112;DHT22;11222;50.872;4.312;2023-01-09T01:24:27;6.80;99.90
22112;DHT22;11222;50.872;4.312;2023-01-09T01:26:53;6.80;99.90
22112;DHT22;11222;50.872;4.312;2023-01-09T01:29:18;6.80;99.90
22112;DHT22;11222;50.872;4.312;2023-01-09T01:31:45;6.70;99.90
22112;DHT22;11222;50.872;4.312;2023-01-09T01:34:10;6.70;99.90
22112;DHT22;11222;50.872;4.312;2023-01-09T01:36:36;6.80;99.90
22112;DHT22;11222;50.872;4.312;2023-01-09T01:39:02;6.80;99.90
22112;DHT22;11222;50.872;4.312;2023-01-09T01:41:28;6.80;99.90
22112;DHT22;11222;50.872;4.312;2023-01-09T01:44:06;6.80;99.90
22112;DHT22;11222;50.872;4.312;2023-01-09T01:46:33;6.80;99.90
22112;DHT22;11222;50.872;4.312;2023-01-09T01:49:06;6.80;99.90
22112;DHT22;11222;50.872;4.312;2023-01-09T01:51:40;6.80;99.90
22112;DHT22;11222;50.872;4.312;2023-01-09T01:54:16;6.80;99.90
22112;DHT22;11222;50.872;4.312;2023-01-09T01:56:45;6.80;99.90
22112;DHT22;11222;50.872;4.312;2023-01-09T01:59:25;6.80;99.90
22112;DHT22;11222;50.872;4.312;2023-01-09T02:01:55;6.90;99.90
22112;DHT22;11222;50.872;4.312;2023-01-09T02:04:22;6.90;99.90
22112;DHT22;11222;50.872;4.312;2023-01-09T02:06:51;6.90;99.90
22112;DHT22;11222;50.872;4.312;2023-01-09T02:09:18;7.00;99.90
22112;DHT22;11222;50.872;4.312;2023-01-09T02:11:49;7.00;99.90
22112;DHT22;11222;50.872;4.312;2023-01-09T02:14:20;7.00;99.90
22112;DHT22;11222;50.872;4.312;2023-01-09T02:25:07;7.10;99.90
22112;DHT22;11222;50.872;4.312;2023-01-09T02:28:03;7.10;99.90
22112;DHT22;11222;50.872;4.312;2023-01-09T02:30:48;7.10;99.90
22112;DHT22;11222;50.872;4.312;2023-01-09T02:33:41;7.20;99.90
22112;DHT22;11222;50.872;4.312;2023-01-09T02:36:38;7.20;99.90
22112;DHT22;11222;50.872;4.312;2023-01-09T02:39:15;7.20;99.90
22112;DHT22;11222;50.872;4.312;2023-01-09T02:44:28;7.40;99.90
22112;DHT22;11222;50.872;4.312;2023-01-09T02:49:58;7.50;99.90
22112;DHT22;11222;50.872;4.312;2023-01-09T02:55:48;7.50;99.90
22112;DHT22;11222;50.872;4.312;2023-01-09T03:04:15;7.50;99.90
22112;DHT22;11222;50.872;4.312;2023-01-09T03:09:20;7.50;99.90
22112;DHT22;11222;50.872;4.312;2023-01-09T03:11:54;7.50;99.90
22112;DHT22;11222;50.872;4.312;2023-01-09T03:14:23;7.60;99.90
22112;DHT22;11222;50.872;4.312;2023-01-09T03:16:54;7.50;99.90
22112;DHT22;11222;50.872;4.312;2023-01-09T03:19:23;7.50;99.90
22112;DHT22;11222;50.872;4.312;2023-01-09T03:21:52;7.50;99.90
22112;DHT22;11222;50.872;4.312;2023-01-09T03:24:19;7.50;99.90
22112;DHT22;11222;50.872;4.312;2023-01-09T03:26:45;7.50;99.90
22112;DHT22;11222;50.872;4.312;2023-01-09T03:29:10;7.60;99.90
22112;DHT22;11222;50.872;4.312;2023-01-09T03:31:36;7.60;99.90
22112;DHT22;11222;50.872;4.312;2023-01-09T03:34:02;7.60;99.90
22112;DHT22;11222;50.872;4.312;2023-01-09T03:36:28;7.60;99.90
22112;DHT22;11222;50.872;4.312;2023-01-09T03:38:54;7.50;99.90
22112;DHT22;11222;50.872;4.312;2023-01-09T03:41:19;7.50;99.90
22112;DHT22;11222;50.872;4.312;2023-01-09T03:43:45;7.50;99.90
22112;DHT22;11222;50.872;4.312;2023-01-09T03:46:15;7.50;99.90
22112;DHT22;11222;50.872;4.312;2023-01-09T03:48:41;7.40;99.90
22112;DHT22;11222;50.872;4.312;2023-01-09T03:51:07;7.40;99.90
22112;DHT22;11222;50.872;4.312;2023-01-09T03:53:33;7.40;99.90
22112;DHT22;11222;50.872;4.312;2023-01-09T03:55:59;7.40;99.90
22112;DHT22;11222;50.872;4.312;2023-01-09T03:58:25;7.40;99.90
22112;DHT22;11222;50.872;4.312;2023-01-09T04:00:55;7.50;99.90
22112;DHT22;11222;50.872;4.312;2023-01-09T04:03:21;7.50;99.90
22112;DHT22;11222;50.872;4.312;2023-01-09T04:05:48;7.60;99.90
22112;DHT22;11222;50.872;4.312;2023-01-09T04:08:14;7.60;99.90
22112;DHT22;11222;50.872;4.312;2023-01-09T04:10:52;7.60;99.90
22112;DHT22;11222;50.872;4.312;2023-01-09T04:13:18;7.70;99.90
22112;DHT22;11222;50.872;4.312;2023-01-09T04:15:43;7.70;99.90
22112;DHT22;11222;50.872;4.312;2023-01-09T04:18:09;7.70;99.90
22112;DHT22;11222;50.872;4.312;2023-01-09T04:20:35;7.80;99.90
22112;DHT22;11222;50.872;4.312;2023-01-09T04:23:01;7.80;99.90
22112;DHT22;11222;50.872;4.312;2023-01-09T04:25:26;7.80;99.90
22112;DHT22;11222;50.872;4.312;2023-01-09T04:27:52;7.70;99.90
22112;DHT22;11222;50.872;4.312;2023-01-09T04:30:18;7.80;99.90
22112;DHT22;11222;50.872;4.312;2023-01-09T04:32:44;7.80;99.90
22112;DHT22;11222;50.872;4.312;2023-01-09T04:35:09;7.80;99.90
22112;DHT22;11222;50.872;4.312;2023-01-09T04:37:35;7.80;99.90
22112;DHT22;11222;50.872;4.312;2023-01-09T04:40:05;7.80;99.90
22112;DHT22;11222;50.872;4.312;2023-01-09T04:42:35;7.80;99.90
22112;DHT22;11222;50.872;4.312;2023-01-09T04:45:01;7.80;99.90
22112;DHT22;11222;50.872;4.312;2023-01-09T04:47:27;7.80;99.90
22112;DHT22;11222;50.872;4.312;2023-01-09T04:49:52;7.80;99.90
22112;DHT22;11222;50.872;4.312;2023-01-09T04:52:18;7.80;99.90
22112;DHT22;11222;50.872;4.312;2023-01-09T04:54:44;7.80;99.90
22112;DHT22;11222;50.872;4.312;2023-01-09T04:57:10;7.80;99.90
22112;DHT22;11222;50.872;4.312;2023-01-09T04:59:35;7.90;99.90
22112;DHT22;11222;50.872;4.312;2023-01-09T05:02:01;7.90;99.90
22112;DHT22;11222;50.872;4.312;2023-01-09T05:04:27;7.90;99.90
22112;DHT22;11222;50.872;4.312;2023-01-09T05:06:53;7.90;99.90
22112;DHT22;11222;50.872;4.312;2023-01-09T05:09:18;7.90;99.90
22112;DHT22;11222;50.872;4.312;2023-01-09T05:11:44;7.90;99.90
22112;DHT22;11222;50.872;4.312;2023-01-09T05:14:10;7.90;99.90
22112;DHT22;11222;50.872;4.312;2023-01-09T05:16:37;7.80;99.90
22112;DHT22;11222;50.872;4.312;2023-01-09T05:19:03;7.80;99.90
22112;DHT22;11222;50.872;4.312;2023-01-09T05:21:29;7.80;99.90
22112;DHT22;11222;50.872;4.312;2023-01-09T05:23:54;7.80;99.90
22112;DHT22;11222;50.872;4.312;2023-01-09T05:26:21;7.80;99.90
22112;DHT22;11222;50.872;4.312;2023-01-09T05:28:53;7.80;99.90
22112;DHT22;11222;50.872;4.312;2023-01-09T05:31:21;7.80;99.90
22112;DHT22;11222;50.872;4.312;2023-01-09T05:33:47;7.80;99.90
22112;DHT22;11222;50.872;4.312;2023-01-09T05:36:13;7.80;99.90
22112;DHT22;11222;50.872;4.312;2023-01-09T05:38:39;7.80;99.90
22112;DHT22;11222;50.872;4.312;2023-01-09T05:41:05;7.80;99.90
22112;DHT22;11222;50.872;4.312;2023-01-09T05:43:31;7.80;99.90
22112;DHT22;11222;50.872;4.312;2023-01-09T05:45:57;7.80;99.90
22112;DHT22;11222;50.872;4.312;2023-01-09T05:48:22;7.80;99.90
22112;DHT22;11222;50.872;4.312;2023-01-09T05:50:48;7.80;99.90
22112;DHT22;11222;50.872;4.312;2023-01-09T05:53:14;7.80;99.90
22112;DHT22;11222;50.872;4.312;2023-01-09T05:55:40;7.80;99.90
22112;DHT22;11222;50.872;4.312;2023-01-09T05:58:05;7.80;99.90
22112;DHT22;11222;50.872;4.312;2023-01-09T06:00:31;7.80;99.90
22112;DHT22;11222;50.872;4.312;2023-01-09T06:02:57;7.90;99.90
22112;DHT22;11222;50.872;4.312;2023-01-09T06:05:23;7.80;99.90
22112;DHT22;11222;50.872;4.312;2023-01-09T06:07:48;7.80;99.90
22112;DHT22;11222;50.872;4.312;2023-01-09T06:10:14;7.80;99.90
22112;DHT22;11222;50.872;4.312;2023-01-09T06:12:41;7.80;99.90
22112;DHT22;11222;50.872;4.312;2023-01-09T06:15:09;7.80;99.90
22112;DHT22;11222;50.872;4.312;2023-01-09T06:17:35;7.80;99.90
22112;DHT22;11222;50.872;4.312;2023-01-09T06:20:01;7.80;99.90
22112;DHT22;11222;50.872;4.312;2023-01-09T06:22:27;7.80;99.90
22112;DHT22;11222;50.872;4.312;2023-01-09T06:24:52;7.80;99.90
22112;DHT22;11222;50.872;4.312;2023-01-09T06:27:18;7.80;99.90
22112;DHT22;11222;50.872;4.312;2023-01-09T06:29:44;7.80;99.90
22112;DHT22;11222;50.872;4.312;2023-01-09T06:32:10;7.80;99.90
22112;DHT22;11222;50.872;4.312;2023-01-09T06:34:35;7.90;99.90
22112;DHT22;11222;50.872;4.312;2023-01-09T06:37:01;7.90;99.90
22112;DHT22;11222;50.872;4.312;2023-01-09T06:39:27;7.90;99.90
22112;DHT22;11222;50.872;4.312;2023-01-09T06:41:53;7.80;99.90
22112;DHT22;11222;50.872;4.312;2023-01-09T06:44:18;7.90;99.90
22112;DHT22;11222;50.872;4.312;2023-01-09T06:46:44;7.90;99.90
22112;DHT22;11222;50.872;4.312;2023-01-09T06:49:10;7.90;99.90
22112;DHT22;11222;50.872;4.312;2023-01-09T06:51:36;7.90;99.90
22112;DHT22;11222;50.872;4.312;2023-01-09T06:54:01;8.00;99.90
22112;DHT22;11222;50.872;4.312;2023-01-09T06:56:27;7.90;99.90
22112;DHT22;11222;50.872;4.312;2023-01-09T06:58:52;7.90;99.90
22112;DHT22;11222;50.872;4.312;2023-01-09T07:01:18;7.90;99.90
22112;DHT22;11222;50.872;4.312;2023-01-09T07:03:44;7.90;99.90
22112;DHT22;11222;50.872;4.312;2023-01-09T07:06:10;7.90;99.90
22112;DHT22;11222;50.872;4.312;2023-01-09T07:08:36;7.90;99.90
22112;DHT22;11222;50.872;4.312;2023-01-09T07:11:02;7.90;99.90
22112;DHT22;11222;50.872;4.312;2023-01-09T07:13:28;7.90;99.90
22112;DHT22;11222;50.872;4.312;2023-01-09T07:15:53;7.90;99.90
22112;DHT22;11222;50.872;4.312;2023-01-09T07:18:19;7.90;99.90
22112;DHT22;11222;50.872;4.312;2023-01-09T07:20:45;7.90;99.90
22112;DHT22;11222;50.872;4.312;2023-01-09T07:23:11;7.90;99.90
22112;DHT22;11222;50.872;4.312;2023-01-09T07:25:38;7.90;99.90
22112;DHT22;11222;50.872;4.312;2023-01-09T07:28:04;7.90;99.90
22112;DHT22;11222;50.872;4.312;2023-01-09T07:30:29;7.90;99.90
22112;DHT22;11222;50.872;4.312;2023-01-09T07:32:55;7.90;99.90
22112;DHT22;11222;50.872;4.312;2023-01-09T07:35:21;7.90;99.90
22112;DHT22;11222;50.872;4.312;2023-01-09T07:37:47;7.90;99.90
22112;DHT22;11222;50.872;4.312;2023-01-09T07:40:12;7.90;99.90
22112;DHT22;11222;50.872;4.312;2023-01-09T07:42:38;8.00;99.90
22112;DHT22;11222;50.872;4.312;2023-01-09T07:45:05;8.00;99.90
22112;DHT22;11222;50.872;4.312;2023-01-09T07:47:30;8.10;99.90
22112;DHT22;11222;50.872;4.312;2023-01-09T07:49:56;8.00;99.90
22112;DHT22;11222;50.872;4.312;2023-01-09T07:52:22;8.00;99.90
22112;DHT22;11222;50.872;4.312;2023-01-09T07:54:47;7.90;99.90
22112;DHT22;11222;50.872;4.312;2023-01-09T07:57:13;7.90;99.90
22112;DHT22;11222;50.872;4.312;2023-01-09T07:59:39;7.90;99.90
22112;DHT22;11222;50.872;4.312;2023-01-09T08:02:05;7.90;99.90
22112;DHT22;11222;50.872;4.312;2023-01-09T08:04:31;7.80;99.90
22112;DHT22;11222;50.872;4.312;2023-01-09T08:06:58;7.80;99.90
22112;DHT22;11222;50.872;4.312;2023-01-09T08:09:23;7.90;99.90
22112;DHT22;11222;50.872;4.312;2023-01-09T08:11:49;7.80;99.90
22112;DHT22;11222;50.872;4.312;2023-01-09T08:14:15;7.80;99.90
22112;DHT22;11222;50.872;4.312;2023-01-09T08:16:41;7.80;99.90
22112;DHT22;11222;50.872;4.312;2023-01-09T08:19:06;7.80;99.90
22112;DHT22;11222;50.872;4.312;2023-01-09T08:21:32;7.80;99.90
22112;DHT22;11222;50.872;4.312;2023-01-09T08:23:58;7.80;99.90
22112;DHT22;11222;50.872;4.312;2023-01-09T08:26:24;7.80;99.90
22112;DHT22;11222;50.872;4.312;2023-01-09T08:28:50;7.80;99.90
22112;DHT22;11222;50.872;4.312;2023-01-09T08:31:15;7.80;99.90
22112;DHT22;11222;50.872;4.312;2023-01-09T08:33:42;7.80;99.90
22112;DHT22;11222;50.872;4.312;2023-01-09T08:36:08;7.80;99.90
22112;DHT22;11222;50.872;4.312;2023-01-09T08:38:34;7.90;99.90
22112;DHT22;11222;50.872;4.312;2023-01-09T08:40:59;7.90;99.90
22112;DHT22;11222;50.872;4.312;2023-01-09T08:43:45;7.90;99.90
22112;DHT22;11222;50.872;4.312;2023-01-09T08:46:29;7.90;99.90
22112;DHT22;11222;50.872;4.312;2023-01-09T08:49:14;7.80;99.90
22112;DHT22;11222;50.872;4.312;2023-01-09T08:51:39;7.70;99.90
22112;DHT22;11222;50.872;4.312;2023-01-09T08:54:05;7.80;99.90
22112;DHT22;11222;50.872;4.312;2023-01-09T08:56:31;7.80;99.90
22112;DHT22;11222;50.872;4.312;2023-01-09T08:58:56;7.80;99.90
22112;DHT22;11222;50.872;4.312;2023-01-09T09:01:22;7.70;99.90
22112;DHT22;11222;50.872;4.312;2023-01-09T09:03:48;7.70;99.90
22112;DHT22;11222;50.872;4.312;2023-01-09T09:06:13;7.70;99.90
22112;DHT22;11222;50.872;4.312;2023-01-09T09:08:39;7.70;99.90
22112;DHT22;11222;50.872;4.312;2023-01-09T09:11:05;7.60;99.90
22112;DHT22;11222;50.872;4.312;2023-01-09T09:13:30;7.70;99.90
22112;DHT22;11222;50.872;4.312;2023-01-09T09:15:57;7.70;99.90
22112;DHT22;11222;50.872;4.312;2023-01-09T09:18:23;7.80;99.90
22112;DHT22;11222;50.872;4.312;2023-01-09T09:20:48;7.80;99.90
22112;DHT22;11222;50.872;4.312;2023-01-09T09:23:14;7.80;99.90
22112;DHT22;11222;50.872;4.312;2023-01-09T09:25:40;7.70;99.90
22112;DHT22;11222;50.872;4.312;2023-01-09T09:28:06;7.70;99.90
22112;DHT22;11222;50.872;4.312;2023-01-09T09:30:32;7.80;99.90
22112;DHT22;11222;50.872;4.312;2023-01-09T09:32:57;7.90;99.90
22112;DHT22;11222;50.872;4.312;2023-01-09T09:35:23;7.90;99.90
22112;DHT22;11222;50.872;4.312;2023-01-09T09:37:57;7.90;99.90
22112;DHT22;11222;50.872;4.312;2023-01-09T09:43:26;7.80;99.90
22112;DHT22;11222;50.872;4.312;2023-01-09T09:49:21;7.80;99.90
22112;DHT22;11222;50.872;4.312;2023-01-09T09:52:05;7.90;99.90
22112;DHT22;11222;50.872;4.312;2023-01-09T09:54:40;7.80;99.90
22112;DHT22;11222;50.872;4.312;2023-01-09T09:57:14;7.80;99.90
22112;DHT22;11222;50.872;4.312;2023-01-09T09:59:42;7.80;99.90
22112;DHT22;11222;50.872;4.312;2023-01-09T10:04:38;7.70;99.90
22112;DHT22;11222;50.872;4.312;2023-01-09T10:07:08;7.80;99.90
22112;DHT22;11222;50.872;4.312;2023-01-09T10:09:54;7.70;99.90
22112;DHT22;11222;50.872;4.312;2023-01-09T10:14:55;7.80;99.90
22112;DHT22;11222;50.872;4.312;2023-01-09T10:26:11;7.80;99.90
22112;DHT22;11222;50.872;4.312;2023-01-09T10:29:05;7.70;99.90
22112;DHT22;11222;50.872;4.312;2023-01-09T10:39:53;7.80;99.90
22112;DHT22;11222;50.872;4.312;2023-01-09T10:44:55;7.70;99.90
22112;DHT22;11222;50.872;4.312;2023-01-09T10:47:28;7.80;99.90
22112;DHT22;11222;50.872;4.312;2023-01-09T10:49:55;7.90;99.90
22112;DHT22;11222;50.872;4.312;2023-01-09T10:52:27;7.80;99.90
22112;DHT22;11222;50.872;4.312;2023-01-09T10:54:56;7.90;99.90
22112;DHT22;11222;50.872;4.312;2023-01-09T10:59:56;7.90;99.90
22112;DHT22;11222;50.872;4.312;2023-01-09T11:02:28;7.90;99.90
22112;DHT22;11222;50.872;4.312;2023-01-09T11:04:54;7.90;99.90
22112;DHT22;11222;50.872;4.312;2023-01-09T11:07:41;7.90;99.90
22112;DHT22;11222;50.872;4.312;2023-01-09T11:10:09;8.00;99.90
22112;DHT22;11222;50.872;4.312;2023-01-09T11:12:39;7.90;99.90
22112;DHT22;11222;50.872;4.312;2023-01-09T11:17:46;7.90;99.90
22112;DHT22;11222;50.872;4.312;2023-01-09T11:22:46;8.00;99.90
22112;DHT22;11222;50.872;4.312;2023-01-09T11:25:14;8.00;99.90
22112;DHT22;11222;50.872;4.312;2023-01-09T11:27:40;8.00;99.90
22112;DHT22;11222;50.872;4.312;2023-01-09T11:30:18;8.10;99.90
22112;DHT22;11222;50.872;4.312;2023-01-09T11:32:45;8.00;99.90
22112;DHT22;11222;50.872;4.312;2023-01-09T11:35:29;8.10;99.90
22112;DHT22;11222;50.872;4.312;2023-01-09T11:38:14;8.20;99.90
22112;DHT22;11222;50.872;4.312;2023-01-09T11:40:53;8.20;99.90
22112;DHT22;11222;50.872;4.312;2023-01-09T11:43:37;8.20;99.90
22112;DHT22;11222;50.872;4.312;2023-01-09T11:46:09;8.10;99.90
22112;DHT22;11222;50.872;4.312;2023-01-09T11:48:56;8.10;99.90
22112;DHT22;11222;50.872;4.312;2023-01-09T11:51:24;8.10;99.90
22112;DHT22;11222;50.872;4.312;2023-01-09T11:56:19;8.20;99.90
22112;DHT22;11222;50.872;4.312;2023-01-09T11:58:44;8.20;99.90
22112;DHT22;11222;50.872;4.312;2023-01-09T12:04:22;8.40;99.90
22112;DHT22;11222;50.872;4.312;2023-01-09T12:12:52;8.40;99.90
22112;DHT22;11222;50.872;4.312;2023-01-09T12:17:52;8.30;99.90
22112;DHT22;11222;50.872;4.312;2023-01-09T12:29:12;8.50;99.90
22112;DHT22;11222;50.872;4.312;2023-01-09T12:34:53;8.70;99.90
22112;DHT22;11222;50.872;4.312;2023-01-09T12:46:40;9.00;99.90
22112;DHT22;11222;50.872;4.312;2023-01-09T12:49:32;8.90;99.90
22112;DHT22;11222;50.872;4.312;2023-01-09T12:55:24;9.00;99.90
22112;DHT22;11222;50.872;4.312;2023-01-09T12:57:57;9.10;99.90
22112;DHT22;11222;50.872;4.312;2023-01-09T13:00:33;9.20;99.90
22112;DHT22;11222;50.872;4.312;2023-01-09T13:05:34;9.20;99.90
22112;DHT22;11222;50.872;4.312;2023-01-09T13:08:06;9.30;99.90
22112;DHT22;11222;50.872;4.312;2023-01-09T13:10:41;9.30;99.90
22112;DHT22;11222;50.872;4.312;2023-01-09T13:13:19;9.30;99.90
22112;DHT22;11222;50.872;4.312;2023-01-09T13:15:58;9.10;99.90
22112;DHT22;11222;50.872;4.312;2023-01-09T13:18:40;9.10;99.90
22112;DHT22;11222;50.872;4.312;2023-01-09T13:21:07;9.00;99.90
22112;DHT22;11222;50.872;4.312;2023-01-09T13:23:45;9.10;99.90
22112;DHT22;11222;50.872;4.312;2023-01-09T13:26:18;9.30;99.90
22112;DHT22;11222;50.872;4.312;2023-01-09T13:28:54;9.30;99.90
22112;DHT22;11222;50.872;4.312;2023-01-09T13:34:03;9.20;99.90
22112;DHT22;11222;50.872;4.312;2023-01-09T13:36:36;9.30;99.90
22112;DHT22;11222;50.872;4.312;2023-01-09T13:39:03;9.30;99.90
22112;DHT22;11222;50.872;4.312;2023-01-09T13:41:30;9.30;99.90
22112;DHT22;11222;50.872;4.312;2023-01-09T13:46:49;9.30;99.90
22112;DHT22;11222;50.872;4.312;2023-01-09T13:52:04;9.30;99.90
22112;DHT22;11222;50.872;4.312;2023-01-09T13:57:26;9.20;99.90
22112;DHT22;11222;50.872;4.312;2023-01-09T13:59:53;9.10;99.90
22112;DHT22;11222;50.872;4.312;2023-01-09T14:05:02;9.10;99.90
22112;DHT22;11222;50.872;4.312;2023-01-09T14:07:32;9.00;99.90
22112;DHT22;11222;50.872;4.312;2023-01-09T14:10:05;9.00;99.90
22112;DHT22;11222;50.872;4.312;2023-01-09T14:12:38;8.90;99.90
22112;DHT22;11222;50.872;4.312;2023-01-09T14:15:30;9.00;99.90
22112;DHT22;11222;50.872;4.312;2023-01-09T14:18:01;9.00;99.90
22112;DHT22;11222;50.872;4.312;2023-01-09T14:20:38;8.90;99.90
22112;DHT22;11222;50.872;4.312;2023-01-09T14:23:06;8.80;99.90
22112;DHT22;11222;50.872;4.312;2023-01-09T14:25:32;8.80;99.90
22112;DHT22;11222;50.872;4.312;2023-01-09T14:38:50;8.70;99.90
22112;DHT22;11222;50.872;4.312;2023-01-09T14:41:46;8.60;99.90
22112;DHT22;11222;50.872;4.312;2023-01-09T14:46:55;8.50;99.90
22112;DHT22;11222;50.872;4.312;2023-01-09T14:49:40;8.50;99.90
22112;DHT22;11222;50.872;4.312;2023-01-09T14:52:28;8.40;99.90
22112;DHT22;11222;50.872;4.312;2023-01-09T14:55:00;8.40;99.90
22112;DHT22;11222;50.872;4.312;2023-01-09T14:57:29;8.50;99.90
22112;DHT22;11222;50.872;4.312;2023-01-09T15:00:03;8.40;99.90
22112;DHT22;11222;50.872;4.312;2023-01-09T15:02:31;8.40;99.90
22112;DHT22;11222;50.872;4.312;2023-01-09T15:05:04;8.40;99.90
22112;DHT22;11222;50.872;4.312;2023-01-09T15:07:35;8.40;99.90
22112;DHT22;11222;50.872;4.312;2023-01-09T15:10:06;8.30;99.90
22112;DHT22;11222;50.872;4.312;2023-01-09T15:12:32;8.30;99.90
22112;DHT22;11222;50.872;4.312;2023-01-09T15:15:00;8.20;99.90
22112;DHT22;11222;50.872;4.312;2023-01-09T15:17:31;8.30;99.90
22112;DHT22;11222;50.872;4.312;2023-01-09T15:20:00;8.30;99.90
22112;DHT22;11222;50.872;4.312;2023-01-09T15:22:36;8.30;99.90
22112;DHT22;11222;50.872;4.312;2023-01-09T15:25:32;8.40;99.90
22112;DHT22;11222;50.872;4.312;2023-01-09T15:28:00;8.40;99.90
22112;DHT22;11222;50.872;4.312;2023-01-09T15:30:31;8.50;99.90
22112;DHT22;11222;50.872;4.312;2023-01-09T15:33:12;8.40;99.90
22112;DHT22;11222;50.872;4.312;2023-01-09T15:35:43;8.40;99.90
22112;DHT22;11222;50.872;4.312;2023-01-09T15:38:14;8.30;99.90
22112;DHT22;11222;50.872;4.312;2023-01-09T15:40:41;8.30;99.90
22112;DHT22;11222;50.872;4.312;2023-01-09T15:43:11;8.30;99.90
22112;DHT22;11222;50.872;4.312;2023-01-09T15:45:43;8.30;99.90
22112;DHT22;11222;50.872;4.312;2023-01-09T15:48:23;8.10;99.90
22112;DHT22;11222;50.872;4.312;2023-01-09T15:50:57;8.10;99.90
22112;DHT22;11222;50.872;4.312;2023-01-09T15:53:26;8.00;99.90
22112;DHT22;11222;50.872;4.312;2023-01-09T15:58:39;7.90;99.90
22112;DHT22;11222;50.872;4.312;2023-01-09T16:01:28;7.80;99.90
22112;DHT22;11222;50.872;4.312;2023-01-09T16:04:03;7.90;99.90
22112;DHT22;11222;50.872;4.312;2023-01-09T16:06:35;7.90;99.90
22112;DHT22;11222;50.872;4.312;2023-01-09T16:09:03;7.90;99.90
22112;DHT22;11222;50.872;4.312;2023-01-09T16:11:37;7.90;99.90
22112;DHT22;11222;50.872;4.312;2023-01-09T16:14:13;7.80;99.90
22112;DHT22;11222;50.872;4.312;2023-01-09T16:16:41;7.70;99.90
22112;DHT22;11222;50.872;4.312;2023-01-09T16:19:44;7.70;99.90
22112;DHT22;11222;50.872;4.312;2023-01-09T16:24:51;7.80;99.90
22112;DHT22;11222;50.872;4.312;2023-01-09T16:27:31;7.70;99.90
22112;DHT22;11222;50.872;4.312;2023-01-09T16:30:04;7.70;99.90
22112;DHT22;11222;50.872;4.312;2023-01-09T16:32:43;7.70;99.90
22112;DHT22;11222;50.872;4.312;2023-01-09T16:35:18;7.80;99.90
22112;DHT22;11222;50.872;4.312;2023-01-09T16:37:44;7.70;99.90
22112;DHT22;11222;50.872;4.312;2023-01-09T16:42:39;7.80;99.90
22112;DHT22;11222;50.872;4.312;2023-01-09T16:45:44;7.80;99.90
22112;DHT22;11222;50.872;4.312;2023-01-09T16:48:18;7.90;99.90
22112;DHT22;11222;50.872;4.312;2023-01-09T16:50:44;7.90;99.90
22112;DHT22;11222;50.872;4.312;2023-01-09T16:53:16;7.80;99.90
22112;DHT22;11222;50.872;4.312;2023-01-09T16:55:43;7.80;99.90
22112;DHT22;11222;50.872;4.312;2023-01-09T17:01:08;7.80;99.90
22112;DHT22;11222;50.872;4.312;2023-01-09T17:03:35;7.70;99.90
22112;DHT22;11222;50.872;4.312;2023-01-09T17:06:02;7.70;99.90
22112;DHT22;11222;50.872;4.312;2023-01-09T17:08:36;7.70;99.90
22112;DHT22;11222;50.872;4.312;2023-01-09T17:11:02;7.70;99.90
22112;DHT22;11222;50.872;4.312;2023-01-09T17:13:28;7.60;99.90
22112;DHT22;11222;50.872;4.312;2023-01-09T17:15:55;7.50;99.90
22112;DHT22;11222;50.872;4.312;2023-01-09T17:18:23;7.50;99.90
22112;DHT22;11222;50.872;4.312;2023-01-09T17:20:55;7.50;99.90
22112;DHT22;11222;50.872;4.312;2023-01-09T17:23:21;7.50;99.90
22112;DHT22;11222;50.872;4.312;2023-01-09T17:25:54;7.50;99.90
22112;DHT22;11222;50.872;4.312;2023-01-09T17:28:43;7.50;99.90
22112;DHT22;11222;50.872;4.312;2023-01-09T17:31:11;7.50;99.90
22112;DHT22;11222;50.872;4.312;2023-01-09T17:33:38;7.50;99.90
22112;DHT22;11222;50.872;4.312;2023-01-09T17:38:43;7.50;99.90
22112;DHT22;11222;50.872;4.312;2023-01-09T17:41:12;7.50;99.90
22112;DHT22;11222;50.872;4.312;2023-01-09T17:43:38;7.40;99.90
22112;DHT22;11222;50.872;4.312;2023-01-09T17:46:04;7.40;99.90
22112;DHT22;11222;50.872;4.312;2023-01-09T17:48:30;7.30;99.90
22112;DHT22;11222;50.872;4.312;2023-01-09T17:50:56;7.30;99.90
22112;DHT22;11222;50.872;4.312;2023-01-09T17:53:22;7.30;99.90
22112;DHT22;11222;50.872;4.312;2023-01-09T17:55:49;7.30;99.90
22112;DHT22;11222;50.872;4.312;2023-01-09T17:58:27;7.20;99.90
22112;DHT22;11222;50.872;4.312;2023-01-09T18:00:57;7.20;99.90
22112;DHT22;11222;50.872;4.312;2023-01-09T18:03:23;7.20;99.90
22112;DHT22;11222;50.872;4.312;2023-01-09T18:05:51;7.20;99.90
22112;DHT22;11222;50.872;4.312;2023-01-09T18:08:17;7.20;99.90
22112;DHT22;11222;50.872;4.312;2023-01-09T18:10:44;7.30;99.90
22112;DHT22;11222;50.872;4.312;2023-01-09T18:13:14;7.30;99.90
22112;DHT22;11222;50.872;4.312;2023-01-09T18:15:42;7.30;99.90
22112;DHT22;11222;50.872;4.312;2023-01-09T18:18:08;7.40;99.90
22112;DHT22;11222;50.872;4.312;2023-01-09T18:20:41;7.50;99.90
22112;DHT22;11222;50.872;4.312;2023-01-09T18:23:08;7.50;99.90
22112;DHT22;11222;50.872;4.312;2023-01-09T18:25:38;7.40;99.90